KDCU/DCU METAR and TAF weather

Enter ICAO airport designator
Station Type Date Time Source
KDCU METAR 2020/01/28 04:53 UTC NOAA

KDCU 280453Z AUTO 00000KT 10SM CLR 03/02 A3003 RMK AO2 SLP169 T00280017


Station Type Date Time Source
KDCU Decoded METAR 2020/01/28 04:53 UTC NOAA

PRYOR FIELD, AL, United States (KDCU) 34-39N 086-57W 176M
Jan 27, 2020 - 11:53 PM EST / 2020.01.28 0453 UTC
Wind: Calm:0
Visibility: 10 mile(s):0
Sky conditions: clear
Temperature: 37.0 F (2.8 C)
Dew Point: 35.1 F (1.7 C)
Relative Humidity: 92%
Pressure (altimeter): 30.03 in. Hg (1016 hPa)
ob: KDCU 280453Z AUTO 00000KT 10SM CLR 03/02 A3003 RMK AO2 SLP169 T00280017
cycle: 5

Station Type Date Time Source
KDCU TAF UTC NOAA

Error!

Example: see airport list